Time;durP1;ratioP1;P1;durP2;ratioP2;P2;SDS_P1;SDS_P2;PMS_P1;PMS_P2;Temp;Humidity;BMP_temperature;BMP_pressure;BME280_temperature;BME280_humidity;BME280_pressure;Samples;Min_cycle;Max_cycle;Signal;HPM_P1;HPM_P2
2021/11/10 00:02:16;;;;;;;20.23;9.48;;;;;;;8.78;85.59;102636.13;5093681;28;20085;-61
2021/11/10 00:04:42;;;;;;;24.33;9.50;;;;;;;8.80;85.22;102639.56;5094077;28;20028;-63
2021/11/10 00:07:07;;;;;;;22.33;9.33;;;;;;;8.78;85.29;102644.09;5094126;28;20273;-61
2021/11/10 00:09:32;;;;;;;22.67;10.40;;;;;;;8.78;85.31;102638.78;5094084;28;20032;-61
2021/11/10 00:11:58;;;;;;;20.27;8.10;;;;;;;8.77;84.94;102635.28;5093917;28;20467;-61
2021/11/10 00:14:23;;;;;;;18.10;8.80;;;;;;;8.79;84.75;102638.69;5093756;28;20270;-61
2021/11/10 00:16:49;;;;;;;20.97;8.53;;;;;;;8.85;84.09;102641.91;5093545;28;20293;-61
2021/11/10 00:19:14;;;;;;;18.95;8.38;;;;;;;8.81;84.26;102643.91;5093886;28;20618;-61
2021/11/10 00:21:40;;;;;;;20.13;8.13;;;;;;;8.78;83.86;102644.09;5093697;28;20463;-62
2021/11/10 00:24:06;;;;;;;19.92;8.38;;;;;;;8.77;83.73;102637.94;5093585;28;20556;-62
2021/11/10 00:26:31;;;;;;;;;;;;;;;8.73;83.23;102628.47;5093666;28;20044;-62
2021/11/10 00:28:57;;;;;;;20.65;8.13;;;;;;;8.74;83.61;102626.63;5093408;28;19942;-62
2021/11/10 00:31:22;;;;;;;14.97;7.67;;;;;;;8.71;83.62;102626.84;5093568;28;20095;-62
2021/11/10 00:33:49;;;;;;;15.73;7.63;;;;;;;8.70;83.68;102625.97;5093117;28;20055;-62
2021/11/10 00:36:16;;;;;;;17.33;7.63;;;;;;;8.73;83.65;102625.81;5093130;28;20426;-62
2021/11/10 00:38:41;;;;;;;14.05;6.95;;;;;;;8.69;83.58;102620.75;5093158;28;20460;-61
2021/11/10 00:41:07;;;;;;;15.35;7.45;;;;;;;8.68;83.46;102617.25;5093197;28;20043;-62
2021/11/10 00:43:33;;;;;;;20.77;6.97;;;;;;;8.70;83.02;102614.50;5093175;28;20024;-62
2021/11/10 00:45:58;;;;;;;16.20;6.75;;;;;;;8.69;83.27;102616.28;5093054;28;20028;-62
2021/11/10 00:48:24;;;;;;;16.27;7.83;;;;;;;8.66;83.47;102616.47;5074781;28;20042;-62
2021/11/10 00:50:50;;;;;;;14.17;7.30;;;;;;;8.71;83.32;102619.72;5093184;28;20266;-62
2021/11/10 00:53:15;;;;;;;16.80;7.45;;;;;;;8.70;83.10;102607.38;5092946;28;20383;-62
2021/11/10 00:55:41;;;;;;;15.97;8.30;;;;;;;8.69;83.17;102607.47;5092834;28;20039;-62
2021/11/10 00:58:08;;;;;;;15.52;7.65;;;;;;;8.69;83.15;102610.13;5092894;28;20297;-62
2021/11/10 01:00:35;;;;;;;19.55;8.70;;;;;;;8.70;83.04;102606.53;5092738;28;20260;-62
2021/11/10 01:03:01;;;;;;;21.65;7.50;;;;;;;8.70;83.13;102602.03;5092129;28;20024;-62
2021/11/10 01:05:28;;;;;;;17.05;7.50;;;;;;;8.71;83.20;102587.81;5092906;28;20032;-62
2021/11/10 01:07:55;;;;;;;18.67;7.10;;;;;;;8.70;83.34;102593.22;5084727;28;20023;-62
2021/11/10 01:10:21;;;;;;;17.60;7.72;;;;;;;8.71;83.36;102590.47;5092612;28;20134;-62
2021/11/10 01:12:47;;;;;;;15.02;6.97;;;;;;;8.71;83.43;102582.50;5074732;28;20036;-62
2021/11/10 01:15:13;;;;;;;16.58;8.10;;;;;;;8.71;83.65;102571.88;5092540;28;20067;-62
2021/11/10 01:17:38;;;;;;;13.68;7.75;;;;;;;8.70;83.87;102575.47;5092581;28;20028;-61
2021/11/10 01:20:06;;;;;;;17.85;8.23;;;;;;;8.69;84.09;102578.22;5092612;28;20024;-62
2021/11/10 01:22:32;;;;;;;18.42;7.80;;;;;;;8.72;83.98;102581.56;5092431;28;20056;-61
2021/11/10 01:24:57;;;;;;;18.17;9.05;;;;;;;8.75;84.03;102580.50;5101413;22;20056;-61
2021/11/10 01:27:22;;;;;;;16.53;8.57;;;;;;;8.76;84.07;102566.25;5071411;28;20037;-62
2021/11/10 01:29:48;;;;;;;22.20;9.00;;;;;;;8.75;84.11;102575.19;5092335;28;20051;-62
2021/11/10 01:32:14;;;;;;;21.67;8.73;;;;;;;8.76;84.19;102566.25;5092527;28;20031;-61
2021/11/10 01:34:40;;;;;;;19.13;8.45;;;;;;;8.76;84.03;102567.13;5092278;28;20030;-62
2021/11/10 01:37:06;;;;;;;20.67;8.55;;;;;;;8.79;83.96;102558.94;5092092;28;20028;-62
2021/11/10 01:39:31;;;;;;;19.92;8.07;;;;;;;8.82;84.12;102554.38;5092256;28;20020;-62
2021/11/10 01:42:04;;;;;;;21.60;9.50;;;;;;;8.82;83.80;102552.56;5092227;28;20027;-62
2021/11/10 01:44:33;;;;;;;19.20;8.75;;;;;;;8.83;83.67;102556.94;5091882;28;20027;-62
2021/11/10 01:47:00;;;;;;;18.27;8.38;;;;;;;8.82;83.67;102546.41;5092254;28;20024;-61
2021/11/10 01:49:26;;;;;;;21.00;10.05;;;;;;;8.80;83.58;102543.84;5091871;28;20028;-62
2021/11/10 01:51:53;;;;;;;29.80;9.80;;;;;;;8.76;83.63;102535.22;5092110;28;20119;-62
2021/11/10 01:54:21;;;;;;;22.58;9.32;;;;;;;8.75;83.84;102530.84;5091872;28;20052;-62
2021/11/10 01:56:48;;;;;;;21.88;9.02;;;;;;;8.73;83.56;102521.25;5091401;28;20047;-62
2021/11/10 01:59:30;;;;;;;;;;;;;;;8.74;83.67;102517.66;5092188;28;20024;-62
2021/11/10 02:01:55;;;;;;;24.67;8.55;;;;;;;8.66;84.21;102518.16;5091938;28;20328;-61
2021/11/10 02:04:21;;;;;;;19.98;9.35;;;;;;;8.61;84.35;102518.41;5073576;28;20119;-63
2021/11/10 02:06:46;;;;;;;20.17;8.65;;;;;;;8.59;84.61;102522.16;5092003;28;20039;-63
2021/11/10 02:09:12;;;;;;;21.27;9.17;;;;;;;8.56;84.79;102515.22;5091668;28;20028;-63
2021/11/10 02:11:39;;;;;;;21.88;8.70;;;;;;;8.55;84.73;102516.19;5091464;28;20043;-61
2021/11/10 02:14:06;;;;;;;22.02;8.63;;;;;;;8.54;84.96;102510.97;5090646;28;20035;-61
2021/11/10 02:16:31;;;;;;;18.52;7.95;;;;;;;8.53;85.46;102503.94;5091601;28;20363;-61
2021/11/10 02:18:57;;;;;;;18.98;8.13;;;;;;;8.54;85.39;102506.50;5091648;28;20025;-61
2021/11/10 02:21:23;;;;;;;20.92;8.65;;;;;;;8.52;85.52;102503.06;5091484;28;20024;-62
2021/11/10 02:23:48;;;;;;;19.02;8.90;;;;;;;8.51;85.74;102503.16;5091499;28;20035;-61
2021/11/10 02:26:16;;;;;;;22.23;8.57;;;;;;;8.50;85.75;102497.00;5090983;28;20052;-62
2021/11/10 02:28:42;;;;;;;19.33;8.40;;;;;;;8.49;85.90;102495.28;5091262;28;20341;-62
2021/11/10 02:31:09;;;;;;;22.08;8.85;;;;;;;8.47;85.94;102499.88;5091435;28;20583;-61
2021/11/10 02:33:35;;;;;;;21.92;8.93;;;;;;;8.45;86.23;102501.72;5091259;28;20043;-61
2021/11/10 02:36:04;;;;;;;22.10;9.50;;;;;;;8.46;85.79;102506.13;5090988;28;20119;-61
2021/11/10 02:38:30;;;;;;;21.58;8.73;;;;;;;8.54;85.24;102505.66;5091169;28;20020;-61
2021/11/10 02:40:57;;;;;;;;;;;;;;;8.54;85.01;102503.00;5091628;28;20020;-62
2021/11/10 02:43:22;;;;;;;24.17;9.02;;;;;;;8.55;84.75;102502.88;5090935;28;19912;-61
2021/11/10 02:45:49;;;;;;;23.08;9.85;;;;;;;8.59;84.06;102508.88;5090985;28;20115;-61
2021/11/10 02:48:15;;;;;;;28.30;10.48;;;;;;;8.61;83.49;102502.47;5090866;28;20390;-61
2021/11/10 02:50:40;;;;;;;23.27;9.00;;;;;;;8.63;83.60;102503.25;5090700;28;20468;-61
2021/11/10 02:53:06;;;;;;;22.43;9.23;;;;;;;8.62;83.06;102498.88;5091037;28;20024;-61
2021/11/10 02:55:31;;;;;;;25.17;9.90;;;;;;;8.64;83.05;102489.00;5090748;28;20050;-61
2021/11/10 02:57:57;;;;;;;19.40;9.27;;;;;;;8.63;82.78;102495.28;5090929;28;20505;-61
2021/11/10 03:00:23;;;;;;;25.88;10.18;;;;;;;8.62;82.50;102490.06;5090873;28;20020;-61
2021/11/10 03:02:50;;;;;;;;;;;;;;;8.66;82.50;102491.56;5091185;28;20067;-62
2021/11/10 03:05:15;;;;;;;26.95;10.18;;;;;;;8.70;82.18;102497.53;5090795;28;19912;-61
2021/11/10 03:07:41;;;;;;;21.90;10.33;;;;;;;8.65;82.04;102495.16;5090699;28;20043;-61
2021/11/10 03:10:07;;;;;;;31.40;12.07;;;;;;;8.63;81.88;102495.28;5090718;28;20059;-61
2021/11/10 03:12:32;;;;;;;29.80;10.65;;;;;;;8.64;81.78;102504.97;5090747;28;20274;-61
2021/11/10 03:14:57;;;;;;;31.40;11.53;;;;;;;8.65;81.78;102495.16;5090534;28;20024;-61
2021/11/10 03:17:24;;;;;;;23.07;10.40;;;;;;;8.65;81.77;102503.13;5090944;28;20055;-62
2021/11/10 03:19:50;;;;;;;32.15;11.07;;;;;;;8.64;81.78;102504.97;5090549;28;20266;-62
2021/11/10 03:22:16;;;;;;;25.57;10.40;;;;;;;8.60;81.69;102498.13;5090639;28;20031;-62
2021/11/10 03:24:41;;;;;;;;;;;;;;;8.61;82.00;102496.31;5091371;28;20029;-62
2021/11/10 03:27:07;;;;;;;26.25;10.43;;;;;;;8.58;81.93;102496.53;5094496;28;20382;-61
2021/11/10 03:29:34;;;;;;;26.67;10.40;;;;;;;8.59;81.63;102493.75;5094739;28;20032;-62
2021/11/10 03:31:59;;;;;;;24.23;10.65;;;;;;;8.61;81.96;102501.63;5094776;28;20027;-62
2021/11/10 03:34:25;;;;;;;23.02;9.43;;;;;;;8.57;81.80;102498.31;5094819;28;20020;-62
2021/11/10 03:36:50;;;;;;;26.47;10.63;;;;;;;8.56;81.84;102495.75;5094365;28;20066;-62
2021/11/10 03:39:17;;;;;;;25.17;8.98;;;;;;;8.55;82.16;102502.88;5094542;28;20478;-62
2021/11/10 03:41:43;;;;;;;23.08;9.55;;;;;;;8.54;82.16;102495.84;5094184;28;20077;-61
2021/11/10 03:44:09;;;;;;;23.85;9.57;;;;;;;8.56;82.15;102506.38;5094513;28;20032;-62
2021/11/10 03:46:37;;;;;;;19.23;9.23;;;;;;;8.55;82.23;102507.34;5094335;28;20060;-62
2021/11/10 03:49:02;;;;;;;19.17;9.68;;;;;;;8.56;82.20;102503.72;5094552;28;20020;-62
2021/11/10 03:51:28;;;;;;;19.73;8.87;;;;;;;8.57;82.37;102502.78;5094345;28;20035;-62
2021/11/10 03:53:54;;;;;;;24.27;9.50;;;;;;;8.57;82.21;102500.97;5094164;28;20517;-62
2021/11/10 03:56:20;;;;;;;19.35;9.27;;;;;;;8.58;81.76;102507.16;5093982;28;20035;-62
2021/11/10 03:58:45;;;;;;;23.43;9.27;;;;;;;8.54;81.81;102509.16;5094239;28;20024;-62
2021/11/10 04:01:13;;;;;;;23.93;9.30;;;;;;;8.52;82.15;102505.72;5094061;28;20020;-63
2021/11/10 04:03:42;;;;;;;23.08;9.45;;;;;;;8.50;81.79;102509.41;5094061;28;20048;-62
2021/11/10 04:06:09;;;;;;;19.08;8.05;;;;;;;8.45;82.20;102501.72;5094083;28;20020;-61
2021/11/10 04:08:34;;;;;;;17.45;8.88;;;;;;;8.43;82.35;102493.00;5093873;28;20052;-61
2021/11/10 04:11:00;;;;;;;17.07;8.50;;;;;;;8.41;82.04;102508.19;5093910;28;20541;-61
2021/11/10 04:13:28;;;;;;;20.52;8.35;;;;;;;8.38;82.22;102511.03;5094028;28;20386;-65
2021/11/10 04:15:54;;;;;;;23.75;9.15;;;;;;;8.38;82.22;102511.88;5093718;28;20030;-63
2021/11/10 04:18:19;;;;;;;20.02;9.02;;;;;;;8.35;81.83;102513.88;5075928;28;20032;-63
2021/11/10 04:20:44;;;;;;;17.53;8.17;;;;;;;8.36;82.05;102507.63;5093925;28;20152;-63
2021/11/10 04:23:10;;;;;;;21.17;8.97;;;;;;;8.36;82.37;102521.75;5093604;28;20473;-63
2021/11/10 04:25:35;;;;;;;15.07;7.57;;;;;;;8.35;82.19;102511.22;5093355;28;20079;-63
2021/11/10 04:28:00;;;;;;;21.53;8.57;;;;;;;8.33;82.00;102508.66;5093516;28;20266;-63
2021/11/10 04:30:26;;;;;;;13.37;8.00;;;;;;;8.34;82.16;102517.47;5093561;28;20028;-63
2021/11/10 04:32:51;;;;;;;21.70;9.03;;;;;;;8.33;81.92;102518.44;5093739;28;20032;-63
2021/11/10 04:35:16;;;;;;;23.00;9.80;;;;;;;8.34;81.81;102521.00;5093527;28;20526;-63
2021/11/10 04:37:43;;;;;;;19.50;8.80;;;;;;;8.33;82.33;102518.44;5092459;28;20115;-62
2021/11/10 04:40:12;;;;;;;16.17;8.30;;;;;;;8.30;82.10;102520.34;5093256;28;20032;-62
2021/11/10 04:42:38;;;;;;;16.90;9.53;;;;;;;8.34;82.13;102505.06;5093344;28;20032;-61
2021/11/10 04:45:08;;;;;;;17.92;9.20;;;;;;;8.32;82.02;102506.94;5093248;28;20030;-62
2021/11/10 04:47:35;;;;;;;19.08;8.80;;;;;;;8.36;81.81;102515.59;5092984;28;20379;-62
2021/11/10 04:50:02;;;;;;;17.95;8.02;;;;;;;8.36;81.85;102512.94;5093249;28;20028;-61
2021/11/10 04:52:27;;;;;;;16.52;8.23;;;;;;;8.36;82.00;102515.59;5093101;28;20065;-61
2021/11/10 04:54:54;;;;;;;13.10;7.33;;;;;;;8.37;81.93;102512.84;5092873;28;20028;-62
2021/11/10 04:57:20;;;;;;;17.60;8.10;;;;;;;8.39;81.58;102513.59;5092868;28;20463;-61
2021/11/10 04:59:46;;;;;;;15.47;7.53;;;;;;;8.37;81.69;102509.34;5092955;28;20080;-61
2021/11/10 05:04:38;;;;;;;14.32;7.15;;;;;;;8.36;81.81;102524.41;5093010;28;20088;-62
2021/11/10 05:07:04;;;;;;;14.55;7.57;;;;;;;8.35;81.74;102524.50;5092721;28;20486;-61
2021/11/10 05:09:30;;;;;;;;;;;;;;;8.33;81.97;102524.59;5093125;28;20588;-61
2021/11/10 05:11:56;;;;;;;15.10;7.15;;;;;;;8.31;82.38;102530.03;5092817;28;19912;-61
2021/11/10 05:14:22;;;;;;;13.98;7.05;;;;;;;8.29;82.69;102531.91;5092768;28;20028;-61
2021/11/10 05:16:48;;;;;;;15.48;7.30;;;;;;;8.26;82.85;102534.75;5092391;28;20039;-61
2021/11/10 05:19:14;;;;;;;16.60;7.37;;;;;;;8.22;82.75;102522.63;5092548;28;20035;-61
2021/11/10 05:21:40;;;;;;;16.83;7.70;;;;;;;8.20;83.06;102523.66;5092724;28;20024;-61
2021/11/10 05:24:05;;;;;;;15.13;7.43;;;;;;;8.18;83.74;102523.75;5092282;28;20023;-61
2021/11/10 05:26:31;;;;;;;16.45;6.88;;;;;;;8.16;83.97;102520.34;5099379;22;20148;-61
2021/11/10 05:28:57;;;;;;;17.00;7.32;;;;;;;8.17;83.88;102522.06;5092323;28;20036;-61
2021/11/10 05:31:23;;;;;;;11.00;6.22;;;;;;;8.17;84.01;102519.41;5092535;28;20021;-61
2021/11/10 05:33:48;;;;;;;15.45;7.32;;;;;;;8.16;83.82;102516.84;5092291;28;20024;-62
2021/11/10 05:36:14;;;;;;;18.52;8.82;;;;;;;8.13;83.38;102526.69;5092160;28;20024;-62
2021/11/10 05:38:39;;;;;;;14.73;7.30;;;;;;;8.14;83.21;102522.22;5092422;28;20050;-62
2021/11/10 05:41:08;;;;;;;14.43;7.25;;;;;;;8.14;83.36;102514.25;5092078;28;20467;-62
2021/11/10 05:43:34;;;;;;;16.07;9.07;;;;;;;8.12;83.73;102514.34;5073940;28;20093;-62
2021/11/10 05:46:00;;;;;;;10.68;6.63;;;;;;;8.14;83.55;102517.78;5092113;28;20487;-62
2021/11/10 05:48:26;;;;;;;13.73;7.63;;;;;;;8.19;82.82;102516.63;5072849;28;20028;-61
2021/11/10 05:50:52;;;;;;;15.93;6.50;;;;;;;8.19;82.96;102520.13;5092351;28;20030;-62
2021/11/10 05:53:18;;;;;;;14.35;7.65;;;;;;;8.22;82.75;102527.06;5092009;28;20103;-63
2021/11/10 05:55:43;;;;;;;16.33;7.50;;;;;;;8.22;82.31;102533.25;5091624;28;20025;-62
2021/11/10 05:58:09;;;;;;;15.13;7.77;;;;;;;8.17;82.14;102527.38;5091714;28;20422;-62
2021/11/10 06:00:35;;;;;;;;;;;;;;;8.13;81.86;102531.16;5092283;28;20020;-62
2021/11/10 06:03:00;;;;;;;14.00;7.23;;;;;;;8.12;82.40;102527.63;5091540;28;19935;-62
2021/11/10 06:05:26;;;;;;;14.38;7.05;;;;;;;8.13;82.76;102532.00;5091986;28;20024;-62
2021/11/10 06:07:52;;;;;;;21.13;8.57;;;;;;;8.09;81.90;102533.13;5073386;28;20624;-62
2021/11/10 06:10:18;;;;;;;12.10;7.00;;;;;;;8.09;82.14;102537.56;5091425;28;20043;-62
2021/11/10 06:12:45;;;;;;;16.57;7.67;;;;;;;8.06;81.95;102535.13;5091381;28;20296;-62
2021/11/10 06:15:11;;;;;;;16.17;7.80;;;;;;;8.01;81.75;102535.41;5091486;28;20475;-62
2021/11/10 06:17:37;;;;;;;15.70;7.18;;;;;;;8.00;82.00;102535.47;5091177;28;20038;-62
2021/11/10 06:20:04;;;;;;;14.13;7.67;;;;;;;8.00;81.75;102533.69;5091631;28;20107;-62
2021/11/10 06:22:30;;;;;;;14.97;7.90;;;;;;;7.97;82.03;102540.06;5091286;28;20853;-61
2021/11/10 06:24:55;;;;;;;15.48;8.02;;;;;;;7.97;82.06;102536.53;5091233;28;20035;-62
2021/11/10 06:27:21;;;;;;;15.27;8.80;;;;;;;7.95;81.99;102541.09;5090823;28;20051;-62
2021/11/10 06:29:46;;;;;;;13.33;8.27;;;;;;;7.96;82.01;102548.13;5091284;28;20036;-62
2021/11/10 06:32:12;;;;;;;17.00;8.23;;;;;;;7.96;81.57;102554.25;5091228;28;20043;-61
2021/11/10 06:34:37;;;;;;;18.38;9.18;;;;;;;7.89;81.05;102552.06;5091240;28;20418;-62
2021/11/10 06:37:03;;;;;;;18.80;9.23;;;;;;;7.86;81.40;102546.94;5091165;28;20035;-61
2021/11/10 06:39:28;;;;;;;13.13;8.35;;;;;;;7.81;81.21;102549.88;5091273;28;20502;-61
2021/11/10 06:41:54;;;;;;;18.45;8.45;;;;;;;7.82;81.40;102546.28;5090955;28;20020;-62
2021/11/10 06:44:19;;;;;;;15.43;8.18;;;;;;;7.84;81.36;102551.47;5091028;28;20107;-63
2021/11/10 06:46:45;;;;;;;17.73;8.80;;;;;;;7.83;81.12;102553.28;5091424;28;20031;-61
2021/11/10 06:49:10;;;;;;;16.40;8.60;;;;;;;7.81;81.48;102547.22;5090898;28;20019;-62
2021/11/10 06:51:38;;;;;;;18.38;9.07;;;;;;;7.75;80.91;102551.09;5091160;28;20024;-63
2021/11/10 06:54:05;;;;;;;17.97;7.93;;;;;;;7.77;81.38;102557.19;5090967;28;20028;-62
2021/11/10 06:56:30;;;;;;;21.47;8.67;;;;;;;7.76;81.12;102550.16;5090366;28;20034;-62
2021/11/10 06:58:57;;;;;;;18.93;9.40;;;;;;;7.74;81.39;102548.53;5090990;28;20111;-62
2021/11/10 07:01:22;;;;;;;16.35;8.13;;;;;;;7.75;81.34;102553.75;5090474;28;20024;-62
2021/11/10 07:03:47;;;;;;;17.27;9.03;;;;;;;7.74;81.36;102560.00;5090587;28;20455;-62
2021/11/10 07:06:13;;;;;;;22.00;9.13;;;;;;;7.74;81.39;102561.81;5090822;28;20031;-62
2021/11/10 07:08:39;;;;;;;23.98;9.90;;;;;;;7.74;81.41;102564.47;5090714;28;20072;-62
2021/11/10 07:11:04;;;;;;;20.30;9.13;;;;;;;7.71;81.47;102564.63;5090839;28;20103;-63
2021/11/10 07:13:30;;;;;;;15.02;8.93;;;;;;;7.69;81.28;102562.06;5089518;28;20453;-63
2021/11/10 07:15:55;;;;;;;22.73;10.40;;;;;;;7.70;81.80;102571.75;5090729;28;20073;-62
2021/11/10 07:18:21;;;;;;;18.98;8.80;;;;;;;7.71;82.11;102583.19;5089593;28;20039;-65
2021/11/10 07:20:46;;;;;;;22.10;10.03;;;;;;;7.70;81.67;102589.47;5090596;28;20109;-62
2021/11/10 07:23:11;;;;;;;20.47;9.93;;;;;;;7.69;81.86;102591.25;5090499;28;20039;-63
2021/11/10 07:25:37;;;;;;;20.60;9.87;;;;;;;7.72;82.08;102590.22;5090283;28;20130;-63
2021/11/10 07:28:02;;;;;;;16.73;9.20;;;;;;;7.71;81.76;102597.34;5090405;28;20016;-62
2021/11/10 07:30:28;;;;;;;18.92;8.73;;;;;;;7.72;81.90;102599.06;5090697;28;20378;-64
2021/11/10 07:32:53;;;;;;;23.47;8.77;;;;;;;7.75;82.38;102603.34;5090542;28;20384;-63
2021/11/10 07:35:19;;;;;;;16.60;8.77;;;;;;;7.76;81.95;102608.53;5090357;28;20035;-63
2021/11/10 07:37:46;;;;;;;15.20;8.45;;;;;;;7.78;82.05;102601.31;5090286;28;20024;-63
2021/11/10 07:40:14;;;;;;;17.07;9.50;;;;;;;7.77;81.97;102594.34;5090321;28;20455;-63
2021/11/10 07:42:39;;;;;;;21.57;11.23;;;;;;;7.79;81.64;102588.94;5072279;28;20028;-63
2021/11/10 07:45:24;;;;;;;19.57;8.37;;;;;;;7.85;81.98;102574.44;5090516;28;20155;-62
2021/11/10 07:47:52;;;;;;;19.63;9.77;;;;;;;7.87;80.95;102573.41;5090301;28;20032;-63
2021/11/10 07:50:21;;;;;;;16.13;8.50;;;;;;;7.91;80.86;102556.34;5090320;28;20034;-63
2021/11/10 07:52:47;;;;;;;15.60;7.40;;;;;;;7.96;81.13;102543.66;5090314;28;20023;-63
2021/11/10 07:55:13;;;;;;;20.97;9.20;;;;;;;8.00;81.06;102546.09;5090101;28;20632;-63
2021/11/10 07:57:38;;;;;;;18.65;8.85;;;;;;;8.06;81.08;102535.97;5090152;28;20265;-63
2021/11/10 08:00:08;;;;;;;17.97;9.00;;;;;;;8.11;80.81;102547.16;5090154;28;20073;-66
2021/11/10 08:02:33;;;;;;;15.80;8.37;;;;;;;8.20;80.69;102543.09;5090199;28;20103;-63
2021/11/10 08:04:59;;;;;;;17.23;9.23;;;;;;;8.23;80.40;102545.56;5090445;28;20502;-64
2021/11/10 08:07:24;;;;;;;20.93;9.67;;;;;;;8.26;80.43;102566.63;5090265;28;20052;-64
2021/11/10 08:09:49;;;;;;;17.37;8.83;;;;;;;8.28;80.24;102585.97;5090021;28;20559;-63
2021/11/10 08:12:15;;;;;;;18.73;9.37;;;;;;;8.25;79.90;102594.13;5091466;28;20093;-64
2021/11/10 08:14:40;;;;;;;18.23;8.93;;;;;;;8.24;79.47;102595.06;5093745;28;20419;-63
2021/11/10 08:17:05;;;;;;;22.13;9.40;;;;;;;8.25;79.40;102587.97;5093847;28;20298;-63
2021/11/10 08:19:31;;;;;;;18.97;9.27;;;;;;;8.23;79.47;102571.28;5075583;28;20081;-63
2021/11/10 08:21:57;;;;;;;21.17;9.98;;;;;;;8.22;79.49;102558.94;5093978;28;20274;-62
2021/11/10 08:24:26;;;;;;;15.83;9.37;;;;;;;8.25;79.69;102566.72;5093959;28;20470;-62
2021/11/10 08:26:51;;;;;;;21.57;9.97;;;;;;;8.31;79.61;102571.66;5093193;28;20482;-63
2021/11/10 08:29:16;;;;;;;21.97;9.93;;;;;;;8.31;78.56;102574.31;5093470;28;20048;-63
2021/11/10 08:31:41;;;;;;;23.73;10.37;;;;;;;8.28;78.37;102570.03;5093529;28;20036;-62
2021/11/10 08:34:07;;;;;;;23.80;10.47;;;;;;;8.31;78.80;102566.34;5093352;28;20036;-63
2021/11/10 08:36:32;;;;;;;15.90;9.20;;;;;;;8.39;78.83;102565.88;5093415;28;20028;-63
2021/11/10 08:38:57;;;;;;;18.95;9.65;;;;;;;8.48;78.42;102562.66;5093402;28;20028;-63
2021/11/10 08:41:23;;;;;;;23.43;10.53;;;;;;;8.51;78.12;102554.53;5093443;28;20039;-63
2021/11/10 08:43:49;;;;;;;27.63;9.00;;;;;;;8.57;78.16;102555.94;5093400;28;20467;-63
2021/11/10 08:46:15;;;;;;;23.48;9.80;;;;;;;8.59;77.47;102554.88;5093083;28;20023;-63
2021/11/10 08:48:40;;;;;;;23.10;9.88;;;;;;;8.59;77.10;102560.19;5074879;28;20032;-63
2021/11/10 08:51:06;;;;;;;21.40;9.67;;;;;;;8.60;76.56;102564.56;5093131;28;20020;-63
2021/11/10 08:53:32;;;;;;;23.40;10.10;;;;;;;8.52;76.75;102558.88;5093029;28;20024;-63
2021/11/10 08:55:58;;;;;;;;;;;;;;;8.61;76.28;102560.09;5093368;28;20039;-63
2021/11/10 08:58:25;;;;;;;23.40;10.70;;;;;;;8.62;76.24;102569.78;5093041;28;19916;-63
2021/11/10 09:00:52;;;;;;;17.30;9.35;;;;;;;8.67;76.70;102582.78;5092820;28;20064;-63
2021/11/10 09:03:21;;;;;;;16.02;9.55;;;;;;;8.66;75.64;102571.28;5092904;28;20039;-63
2021/11/10 09:05:49;;;;;;;25.45;9.73;;;;;;;8.67;74.87;102569.47;5092719;28;20028;-63
2021/11/10 09:08:14;;;;;;;17.58;9.60;;;;;;;8.60;74.40;102579.66;5092957;28;20055;-64
2021/11/10 09:10:40;;;;;;;20.97;10.27;;;;;;;8.69;74.80;102583.53;5092987;28;20474;-63
2021/11/10 09:13:06;;;;;;;;;;;;;;;8.70;73.85;102571.97;5093152;28;20455;-63
2021/11/10 09:15:33;;;;;;;19.25;9.05;;;;;;;8.68;73.18;102571.19;5092491;28;20015;-63
2021/11/10 09:18:01;;;;;;;18.00;8.85;;;;;;;8.68;73.08;102596.00;5092558;28;20024;-63
2021/11/10 09:20:28;;;;;;;20.60;9.43;;;;;;;8.75;73.19;102591.13;5092626;28;20035;-63
2021/11/10 09:22:54;;;;;;;24.55;9.20;;;;;;;8.82;73.06;102583.63;5074076;28;20028;-63
2021/11/10 09:25:22;;;;;;;15.57;8.80;;;;;;;8.85;72.34;102580.75;5095989;22;20385;-63
2021/11/10 09:27:48;;;;;;;20.83;9.15;;;;;;;8.87;72.70;102586.84;5072303;28;20445;-63
2021/11/10 09:30:16;;;;;;;18.80;8.57;;;;;;;9.03;73.45;102582.25;5072055;28;20036;-63
2021/11/10 09:32:44;;;;;;;23.25;9.55;;;;;;;9.09;72.77;102568.56;5071893;28;20032;-63
2021/11/10 09:35:11;;;;;;;19.92;10.50;;;;;;;9.13;72.46;102574.53;5071887;28;20024;-63
2021/11/10 09:37:37;;;;;;;24.08;10.27;;;;;;;9.19;72.17;102576.78;5091844;28;20035;-63
2021/11/10 09:40:05;;;;;;;21.40;9.95;;;;;;;9.24;71.90;102573.84;5092094;28;20528;-63
2021/11/10 09:42:31;;;;;;;20.90;9.55;;;;;;;9.35;72.26;102586.44;5092224;28;20024;-63
2021/11/10 09:44:58;;;;;;;18.42;9.75;;;;;;;9.47;71.87;102582.97;5092315;28;20537;-63
2021/11/10 09:47:24;;;;;;;22.65;9.93;;;;;;;9.53;71.15;102579.88;5092003;28;20438;-62
2021/11/10 09:49:50;;;;;;;21.17;11.02;;;;;;;9.61;71.58;102588.22;5092010;28;20027;-62
2021/11/10 09:52:19;;;;;;;17.58;7.75;;;;;;;9.77;72.11;102588.06;5092129;28;20380;-62
2021/11/10 09:54:45;;;;;;;20.30;8.82;;;;;;;9.86;70.53;102585.72;5091912;28;20086;-62
2021/11/10 09:57:10;;;;;;;20.25;9.63;;;;;;;9.92;70.21;102585.31;5092017;28;20476;-62
2021/11/10 09:59:37;;;;;;;16.20;8.50;;;;;;;10.06;70.85;102581.69;5091921;28;20056;-62
2021/11/10 10:02:07;;;;;;;22.08;10.25;;;;;;;10.23;69.91;102572.53;5091534;28;20030;-62
2021/11/10 10:04:33;;;;;;;19.63;9.05;;;;;;;10.36;68.00;102572.56;5091683;28;20065;-62
2021/11/10 10:07:02;;;;;;;19.48;9.13;;;;;;;10.48;68.66;102584.16;5091747;28;20107;-63
2021/11/10 10:09:28;;;;;;;16.40;8.77;;;;;;;10.65;67.92;102567.84;5091544;28;20467;-63
2021/11/10 10:11:53;;;;;;;17.47;8.97;;;;;;;10.56;66.39;102568.50;5091636;28;20024;-63
2021/11/10 10:14:19;;;;;;;21.57;10.10;;;;;;;10.59;67.47;102576.28;5091578;28;20028;-62
2021/11/10 10:16:44;;;;;;;19.93;9.20;;;;;;;10.62;67.17;102578.72;5091187;28;20606;-62
2021/11/10 10:19:11;;;;;;;13.83;8.93;;;;;;;10.66;67.88;102590.03;5091345;28;20266;-63
2021/11/10 10:21:40;;;;;;;20.05;8.32;;;;;;;10.71;67.47;102582.53;5091360;28;20076;-62
2021/11/10 10:24:12;;;;;;;16.20;9.25;;;;;;;10.66;66.27;102582.84;5091533;28;20024;-61
2021/11/10 10:26:37;;;;;;;17.95;9.45;;;;;;;10.78;67.32;102592.66;5091168;28;20494;-61
2021/11/10 10:29:08;;;;;;;20.00;9.55;;;;;;;10.88;67.35;102594.66;5073091;28;20024;-62
2021/11/10 10:31:39;;;;;;;17.38;9.10;;;;;;;10.91;65.55;102589.97;5091249;28;20447;-63
2021/11/10 10:34:10;;;;;;;16.40;8.70;;;;;;;11.01;67.10;102589.31;5090941;28;20035;-63
2021/11/10 10:36:39;;;;;;;14.52;9.10;;;;;;;11.13;67.14;102594.56;5091054;28;20032;-63
2021/11/10 10:39:09;;;;;;;19.77;9.40;;;;;;;11.13;66.88;102588.41;5091277;28;20112;-63
2021/11/10 10:41:43;;;;;;;17.75;9.20;;;;;;;11.10;65.64;102583.28;5091021;28;20467;-63
2021/11/10 10:44:09;;;;;;;15.15;8.30;;;;;;;11.15;67.29;102586.47;5090809;28;20032;-63
2021/11/10 10:46:38;;;;;;;15.60;7.23;;;;;;;11.30;67.07;102590.66;5090712;28;20490;-63
2021/11/10 10:49:43;;;;;;;14.10;8.25;;;;;;;11.32;65.04;102597.72;5090728;28;20039;-63
2021/11/10 10:52:18;;;;;;;16.60;8.68;;;;;;;11.24;66.04;102593.81;5090983;28;20028;-63
2021/11/10 10:54:46;;;;;;;13.30;8.18;;;;;;;11.27;65.59;102587.41;5090709;28;20032;-63
2021/11/10 10:57:14;;;;;;;22.95;9.15;;;;;;;11.27;65.71;102590.91;5090905;28;20032;-63
2021/11/10 10:59:39;;;;;;;18.40;9.07;;;;;;;11.27;66.21;102582.91;5091013;28;20377;-63
2021/11/10 11:02:07;;;;;;;16.67;8.98;;;;;;;11.34;66.27;102580.63;5090925;28;20035;-63
2021/11/10 11:04:34;;;;;;;17.80;9.48;;;;;;;11.50;66.27;102580.31;5090946;28;20052;-63
2021/11/10 11:07:01;;;;;;;18.50;9.95;;;;;;;11.48;66.43;102576.06;5072624;28;20467;-63
2021/11/10 11:09:42;;;;;;;21.88;9.82;;;;;;;11.45;65.92;102577.16;5090680;28;20476;-63
2021/11/10 11:12:23;;;;;;;21.00;9.77;;;;;;;11.40;65.40;102571.28;5090795;28;20028;-63
2021/11/10 11:14:53;;;;;;;23.23;10.48;;;;;;;11.42;65.88;102569.38;5090789;28;20032;-63
2021/11/10 11:17:18;;;;;;;20.88;9.18;;;;;;;11.43;66.61;102571.09;5090573;28;20024;-63
2021/11/10 11:20:05;;;;;;;17.60;8.83;;;;;;;11.46;66.11;102573.50;5090506;28;20367;-63
2021/11/10 11:22:50;;;;;;;20.15;9.00;;;;;;;11.49;66.97;102567.09;5090608;28;20024;-63
2021/11/10 11:25:22;;;;;;;22.45;10.30;;;;;;;11.39;66.13;102569.63;5090429;28;20115;-63
2021/11/10 11:27:57;;;;;;;17.77;10.43;;;;;;;11.21;65.77;102572.66;5090402;28;20080;-63